sensor_id;sensor_type;location;lat;lon;timestamp;P1;durP1;ratioP1;P2;durP2;ratioP2
11572;SDS011;5842;52.426;4.886;2023-01-09T00:02:17;3.33;;;1.80;;
11572;SDS011;5842;52.426;4.886;2023-01-09T00:04:45;4.47;;;1.83;;
11572;SDS011;5842;52.426;4.886;2023-01-09T00:07:12;6.73;;;2.27;;
11572;SDS011;5842;52.426;4.886;2023-01-09T00:09:39;6.27;;;1.90;;
11572;SDS011;5842;52.426;4.886;2023-01-09T00:12:07;7.63;;;2.20;;
11572;SDS011;5842;52.426;4.886;2023-01-09T00:14:34;7.73;;;1.83;;
11572;SDS011;5842;52.426;4.886;2023-01-09T00:17:02;8.60;;;2.37;;
11572;SDS011;5842;52.426;4.886;2023-01-09T00:19:31;7.50;;;2.00;;
11572;SDS011;5842;52.426;4.886;2023-01-09T00:21:58;4.40;;;1.83;;
11572;SDS011;5842;52.426;4.886;2023-01-09T00:24:26;6.00;;;1.90;;
11572;SDS011;5842;52.426;4.886;2023-01-09T00:26:54;7.23;;;1.93;;
11572;SDS011;5842;52.426;4.886;2023-01-09T00:29:21;6.70;;;1.97;;
11572;SDS011;5842;52.426;4.886;2023-01-09T00:31:49;7.17;;;1.90;;
11572;SDS011;5842;52.426;4.886;2023-01-09T00:34:16;6.90;;;1.97;;
11572;SDS011;5842;52.426;4.886;2023-01-09T00:36:45;6.67;;;2.00;;
11572;SDS011;5842;52.426;4.886;2023-01-09T00:39:12;7.13;;;2.60;;
11572;SDS011;5842;52.426;4.886;2023-01-09T00:41:41;7.97;;;2.27;;
11572;SDS011;5842;52.426;4.886;2023-01-09T00:44:09;6.57;;;2.07;;
11572;SDS011;5842;52.426;4.886;2023-01-09T00:46:39;7.87;;;2.10;;
11572;SDS011;5842;52.426;4.886;2023-01-09T00:49:08;7.30;;;2.20;;
11572;SDS011;5842;52.426;4.886;2023-01-09T00:51:35;6.20;;;2.00;;
11572;SDS011;5842;52.426;4.886;2023-01-09T00:54:05;6.27;;;1.97;;
11572;SDS011;5842;52.426;4.886;2023-01-09T00:56:33;8.00;;;1.90;;
11572;SDS011;5842;52.426;4.886;2023-01-09T00:59:01;8.27;;;1.97;;
11572;SDS011;5842;52.426;4.886;2023-01-09T01:01:29;6.60;;;2.07;;
11572;SDS011;5842;52.426;4.886;2023-01-09T01:03:56;6.47;;;2.00;;
11572;SDS011;5842;52.426;4.886;2023-01-09T01:06:44;12.77;;;2.50;;
11572;SDS011;5842;52.426;4.886;2023-01-09T01:09:30;8.93;;;2.00;;
11572;SDS011;5842;52.426;4.886;2023-01-09T01:11:57;8.73;;;2.47;;
11572;SDS011;5842;52.426;4.886;2023-01-09T01:14:25;8.10;;;2.10;;
11572;SDS011;5842;52.426;4.886;2023-01-09T01:16:53;5.00;;;1.83;;
11572;SDS011;5842;52.426;4.886;2023-01-09T01:19:20;5.70;;;2.20;;
11572;SDS011;5842;52.426;4.886;2023-01-09T01:21:50;6.80;;;2.03;;
11572;SDS011;5842;52.426;4.886;2023-01-09T01:24:18;6.57;;;2.77;;
11572;SDS011;5842;52.426;4.886;2023-01-09T01:26:47;7.60;;;2.20;;
11572;SDS011;5842;52.426;4.886;2023-01-09T01:29:14;10.00;;;2.70;;
11572;SDS011;5842;52.426;4.886;2023-01-09T01:31:42;5.50;;;2.20;;
11572;SDS011;5842;52.426;4.886;2023-01-09T01:34:09;6.93;;;2.43;;
11572;SDS011;5842;52.426;4.886;2023-01-09T01:36:37;6.87;;;2.40;;
11572;SDS011;5842;52.426;4.886;2023-01-09T01:39:04;9.27;;;2.47;;
11572;SDS011;5842;52.426;4.886;2023-01-09T01:41:32;7.37;;;2.60;;
11572;SDS011;5842;52.426;4.886;2023-01-09T01:44:02;12.57;;;3.40;;
11572;SDS011;5842;52.426;4.886;2023-01-09T01:46:31;14.87;;;3.60;;
11572;SDS011;5842;52.426;4.886;2023-01-09T01:49:00;9.20;;;3.27;;
11572;SDS011;5842;52.426;4.886;2023-01-09T01:51:29;6.43;;;2.60;;
11572;SDS011;5842;52.426;4.886;2023-01-09T01:53:58;10.97;;;3.00;;
11572;SDS011;5842;52.426;4.886;2023-01-09T01:56:27;10.03;;;3.10;;
11572;SDS011;5842;52.426;4.886;2023-01-09T01:58:57;10.80;;;3.20;;
11572;SDS011;5842;52.426;4.886;2023-01-09T02:01:27;7.80;;;2.97;;
11572;SDS011;5842;52.426;4.886;2023-01-09T02:03:56;10.10;;;3.13;;
11572;SDS011;5842;52.426;4.886;2023-01-09T02:06:23;8.00;;;3.53;;
11572;SDS011;5842;52.426;4.886;2023-01-09T02:08:51;8.77;;;3.43;;
11572;SDS011;5842;52.426;4.886;2023-01-09T02:11:19;13.03;;;4.27;;
11572;SDS011;5842;52.426;4.886;2023-01-09T02:13:46;8.70;;;3.97;;
11572;SDS011;5842;52.426;4.886;2023-01-09T02:16:18;11.27;;;4.10;;
11572;SDS011;5842;52.426;4.886;2023-01-09T02:18:49;10.90;;;4.60;;
11572;SDS011;5842;52.426;4.886;2023-01-09T02:21:22;9.07;;;4.53;;
11572;SDS011;5842;52.426;4.886;2023-01-09T02:24:07;7.17;;;4.07;;
11572;SDS011;5842;52.426;4.886;2023-01-09T02:26:48;8.30;;;4.40;;
11572;SDS011;5842;52.426;4.886;2023-01-09T02:29:24;10.90;;;4.33;;
11572;SDS011;5842;52.426;4.886;2023-01-09T02:31:56;5.77;;;4.40;;
11572;SDS011;5842;52.426;4.886;2023-01-09T02:34:29;8.50;;;4.00;;
11572;SDS011;5842;52.426;4.886;2023-01-09T02:37:00;10.00;;;3.63;;
11572;SDS011;5842;52.426;4.886;2023-01-09T02:39:32;7.77;;;4.07;;
11572;SDS011;5842;52.426;4.886;2023-01-09T02:42:02;8.37;;;3.80;;
11572;SDS011;5842;52.426;4.886;2023-01-09T02:44:32;10.23;;;3.87;;
11572;SDS011;5842;52.426;4.886;2023-01-09T02:47:03;6.60;;;3.10;;
11572;SDS011;5842;52.426;4.886;2023-01-09T02:49:31;7.83;;;3.67;;
11572;SDS011;5842;52.426;4.886;2023-01-09T02:52:07;6.57;;;3.80;;
11572;SDS011;5842;52.426;4.886;2023-01-09T02:54:38;7.07;;;4.47;;
11572;SDS011;5842;52.426;4.886;2023-01-09T02:57:13;12.80;;;5.00;;
11572;SDS011;5842;52.426;4.886;2023-01-09T02:59:49;12.50;;;5.73;;
11572;SDS011;5842;52.426;4.886;2023-01-09T03:02:35;13.53;;;5.37;;
11572;SDS011;5842;52.426;4.886;2023-01-09T03:05:05;9.57;;;5.63;;
11572;SDS011;5842;52.426;4.886;2023-01-09T03:07:35;13.87;;;5.90;;
11572;SDS011;5842;52.426;4.886;2023-01-09T03:10:06;13.57;;;6.17;;
11572;SDS011;5842;52.426;4.886;2023-01-09T03:12:36;9.63;;;4.90;;
11572;SDS011;5842;52.426;4.886;2023-01-09T03:15:04;7.27;;;4.70;;
11572;SDS011;5842;52.426;4.886;2023-01-09T03:17:35;8.97;;;4.60;;
11572;SDS011;5842;52.426;4.886;2023-01-09T03:20:07;9.23;;;4.70;;
11572;SDS011;5842;52.426;4.886;2023-01-09T03:22:37;10.17;;;5.00;;
11572;SDS011;5842;52.426;4.886;2023-01-09T03:25:05;7.33;;;4.70;;
11572;SDS011;5842;52.426;4.886;2023-01-09T03:27:33;9.33;;;5.17;;
11572;SDS011;5842;52.426;4.886;2023-01-09T03:30:00;10.93;;;5.23;;
11572;SDS011;5842;52.426;4.886;2023-01-09T03:32:27;10.97;;;5.40;;
11572;SDS011;5842;52.426;4.886;2023-01-09T03:34:56;10.27;;;4.80;;
11572;SDS011;5842;52.426;4.886;2023-01-09T03:37:25;9.97;;;5.30;;
11572;SDS011;5842;52.426;4.886;2023-01-09T03:39:53;14.77;;;5.43;;
11572;SDS011;5842;52.426;4.886;2023-01-09T03:42:21;8.50;;;5.17;;
11572;SDS011;5842;52.426;4.886;2023-01-09T03:44:48;12.93;;;5.03;;
11572;SDS011;5842;52.426;4.886;2023-01-09T03:47:16;12.53;;;5.40;;
11572;SDS011;5842;52.426;4.886;2023-01-09T03:49:43;11.77;;;5.23;;
11572;SDS011;5842;52.426;4.886;2023-01-09T03:52:12;9.50;;;5.50;;
11572;SDS011;5842;52.426;4.886;2023-01-09T03:54:40;11.43;;;5.90;;
11572;SDS011;5842;52.426;4.886;2023-01-09T03:57:07;14.43;;;5.60;;
11572;SDS011;5842;52.426;4.886;2023-01-09T03:59:35;11.13;;;5.80;;
11572;SDS011;5842;52.426;4.886;2023-01-09T04:02:02;13.93;;;6.10;;
11572;SDS011;5842;52.426;4.886;2023-01-09T04:04:29;14.40;;;6.40;;
11572;SDS011;5842;52.426;4.886;2023-01-09T04:06:57;10.87;;;6.17;;
11572;SDS011;5842;52.426;4.886;2023-01-09T04:09:26;13.67;;;6.60;;
11572;SDS011;5842;52.426;4.886;2023-01-09T04:11:54;11.10;;;6.27;;
11572;SDS011;5842;52.426;4.886;2023-01-09T04:14:21;14.63;;;7.20;;
11572;SDS011;5842;52.426;4.886;2023-01-09T04:16:49;13.20;;;7.20;;
11572;SDS011;5842;52.426;4.886;2023-01-09T04:19:17;15.10;;;6.97;;
11572;SDS011;5842;52.426;4.886;2023-01-09T04:21:45;13.57;;;7.13;;
11572;SDS011;5842;52.426;4.886;2023-01-09T04:24:12;12.47;;;6.70;;
11572;SDS011;5842;52.426;4.886;2023-01-09T04:26:41;11.17;;;6.30;;
11572;SDS011;5842;52.426;4.886;2023-01-09T04:29:09;8.47;;;5.73;;
11572;SDS011;5842;52.426;4.886;2023-01-09T04:31:36;11.30;;;5.70;;
11572;SDS011;5842;52.426;4.886;2023-01-09T04:34:04;7.43;;;4.67;;
11572;SDS011;5842;52.426;4.886;2023-01-09T04:36:31;12.60;;;4.90;;
11572;SDS011;5842;52.426;4.886;2023-01-09T04:39:00;13.17;;;4.97;;
11572;SDS011;5842;52.426;4.886;2023-01-09T04:41:27;12.07;;;4.90;;
11572;SDS011;5842;52.426;4.886;2023-01-09T04:44:14;12.10;;;4.77;;
11572;SDS011;5842;52.426;4.886;2023-01-09T04:46:41;10.90;;;5.00;;
11572;SDS011;5842;52.426;4.886;2023-01-09T04:49:09;8.97;;;4.30;;
11572;SDS011;5842;52.426;4.886;2023-01-09T04:51:36;10.80;;;5.07;;
11572;SDS011;5842;52.426;4.886;2023-01-09T04:54:06;8.80;;;5.03;;
11572;SDS011;5842;52.426;4.886;2023-01-09T04:56:34;12.50;;;5.73;;
11572;SDS011;5842;52.426;4.886;2023-01-09T04:59:02;12.27;;;6.33;;
11572;SDS011;5842;52.426;4.886;2023-01-09T05:01:31;9.67;;;6.93;;
11572;SDS011;5842;52.426;4.886;2023-01-09T05:03:58;13.10;;;6.53;;
11572;SDS011;5842;52.426;4.886;2023-01-09T05:06:26;10.43;;;7.27;;
11572;SDS011;5842;52.426;4.886;2023-01-09T05:08:53;12.33;;;7.23;;
11572;SDS011;5842;52.426;4.886;2023-01-09T05:11:21;14.50;;;7.93;;
11572;SDS011;5842;52.426;4.886;2023-01-09T05:13:49;13.30;;;8.57;;
11572;SDS011;5842;52.426;4.886;2023-01-09T05:16:19;13.47;;;8.47;;
11572;SDS011;5842;52.426;4.886;2023-01-09T05:18:48;12.10;;;8.27;;
11572;SDS011;5842;52.426;4.886;2023-01-09T05:21:20;14.20;;;8.30;;
11572;SDS011;5842;52.426;4.886;2023-01-09T05:23:48;14.57;;;9.00;;
11572;SDS011;5842;52.426;4.886;2023-01-09T05:26:15;11.37;;;8.40;;
11572;SDS011;5842;52.426;4.886;2023-01-09T05:28:42;13.43;;;8.60;;
11572;SDS011;5842;52.426;4.886;2023-01-09T05:31:10;14.30;;;8.40;;
11572;SDS011;5842;52.426;4.886;2023-01-09T05:33:37;12.27;;;7.73;;
11572;SDS011;5842;52.426;4.886;2023-01-09T05:36:07;15.47;;;8.40;;
11572;SDS011;5842;52.426;4.886;2023-01-09T05:38:34;12.23;;;7.87;;
11572;SDS011;5842;52.426;4.886;2023-01-09T05:41:01;12.40;;;7.60;;
11572;SDS011;5842;52.426;4.886;2023-01-09T05:43:29;12.20;;;7.03;;
11572;SDS011;5842;52.426;4.886;2023-01-09T05:45:56;13.53;;;6.70;;
11572;SDS011;5842;52.426;4.886;2023-01-09T05:48:24;11.67;;;6.10;;
11572;SDS011;5842;52.426;4.886;2023-01-09T05:50:51;11.37;;;6.27;;
11572;SDS011;5842;52.426;4.886;2023-01-09T05:53:20;7.70;;;5.80;;
11572;SDS011;5842;52.426;4.886;2023-01-09T05:55:48;9.83;;;6.07;;
11572;SDS011;5842;52.426;4.886;2023-01-09T05:58:15;8.60;;;5.47;;
11572;SDS011;5842;52.426;4.886;2023-01-09T06:00:43;9.83;;;5.20;;
11572;SDS011;5842;52.426;4.886;2023-01-09T06:03:10;9.27;;;5.00;;
11572;SDS011;5842;52.426;4.886;2023-01-09T06:05:37;9.90;;;5.13;;
11572;SDS011;5842;52.426;4.886;2023-01-09T06:08:05;9.00;;;5.00;;
11572;SDS011;5842;52.426;4.886;2023-01-09T06:10:34;10.37;;;5.20;;
11572;SDS011;5842;52.426;4.886;2023-01-09T06:13:02;11.33;;;5.07;;
11572;SDS011;5842;52.426;4.886;2023-01-09T06:15:29;7.97;;;4.80;;
11572;SDS011;5842;52.426;4.886;2023-01-09T06:17:59;9.27;;;5.27;;
11572;SDS011;5842;52.426;4.886;2023-01-09T06:20:26;9.10;;;5.33;;
11572;SDS011;5842;52.426;4.886;2023-01-09T06:22:53;10.80;;;5.33;;
11572;SDS011;5842;52.426;4.886;2023-01-09T06:25:21;8.87;;;5.17;;
11572;SDS011;5842;52.426;4.886;2023-01-09T06:27:50;9.53;;;5.40;;
11572;SDS011;5842;52.426;4.886;2023-01-09T06:30:17;12.10;;;4.80;;
11572;SDS011;5842;52.426;4.886;2023-01-09T06:32:46;9.70;;;5.47;;
11572;SDS011;5842;52.426;4.886;2023-01-09T06:35:14;9.80;;;4.63;;
11572;SDS011;5842;52.426;4.886;2023-01-09T06:37:44;10.00;;;4.77;;
11572;SDS011;5842;52.426;4.886;2023-01-09T06:40:15;8.67;;;4.63;;
11572;SDS011;5842;52.426;4.886;2023-01-09T06:42:44;7.80;;;4.40;;
11572;SDS011;5842;52.426;4.886;2023-01-09T06:45:13;9.60;;;4.43;;
11572;SDS011;5842;52.426;4.886;2023-01-09T06:47:41;8.93;;;5.00;;
11572;SDS011;5842;52.426;4.886;2023-01-09T06:50:09;10.13;;;4.83;;
11572;SDS011;5842;52.426;4.886;2023-01-09T06:52:36;8.63;;;5.00;;
11572;SDS011;5842;52.426;4.886;2023-01-09T06:55:04;9.87;;;5.07;;
11572;SDS011;5842;52.426;4.886;2023-01-09T06:57:32;11.07;;;5.07;;
11572;SDS011;5842;52.426;4.886;2023-01-09T06:59:59;8.27;;;5.10;;
11572;SDS011;5842;52.426;4.886;2023-01-09T07:02:29;8.87;;;4.87;;
11572;SDS011;5842;52.426;4.886;2023-01-09T07:04:56;10.73;;;5.57;;
11572;SDS011;5842;52.426;4.886;2023-01-09T07:07:24;8.47;;;5.30;;
11572;SDS011;5842;52.426;4.886;2023-01-09T07:09:51;11.77;;;5.20;;
11572;SDS011;5842;52.426;4.886;2023-01-09T07:12:18;11.33;;;5.70;;
11572;SDS011;5842;52.426;4.886;2023-01-09T07:14:46;12.23;;;6.20;;
11572;SDS011;5842;52.426;4.886;2023-01-09T07:17:13;11.70;;;6.50;;
11572;SDS011;5842;52.426;4.886;2023-01-09T07:19:42;10.37;;;6.50;;
11572;SDS011;5842;52.426;4.886;2023-01-09T07:38:50;14.20;;;7.53;;
11572;SDS011;5842;52.426;4.886;2023-01-09T07:41:17;11.63;;;6.40;;
11572;SDS011;5842;52.426;4.886;2023-01-09T07:43:45;13.43;;;7.73;;
11572;SDS011;5842;52.426;4.886;2023-01-09T07:46:12;15.20;;;8.20;;
11572;SDS011;5842;52.426;4.886;2023-01-09T07:48:39;14.07;;;7.83;;
11572;SDS011;5842;52.426;4.886;2023-01-09T07:51:07;14.03;;;7.50;;
11572;SDS011;5842;52.426;4.886;2023-01-09T07:53:37;15.07;;;7.40;;
11572;SDS011;5842;52.426;4.886;2023-01-09T07:56:06;13.13;;;8.37;;
11572;SDS011;5842;52.426;4.886;2023-01-09T07:58:34;16.43;;;8.80;;
11572;SDS011;5842;52.426;4.886;2023-01-09T08:01:02;13.70;;;8.13;;
11572;SDS011;5842;52.426;4.886;2023-01-09T08:03:30;13.23;;;7.97;;
11572;SDS011;5842;52.426;4.886;2023-01-09T08:05:58;13.70;;;8.23;;
11572;SDS011;5842;52.426;4.886;2023-01-09T08:08:25;16.43;;;8.20;;
11572;SDS011;5842;52.426;4.886;2023-01-09T08:10:53;16.60;;;8.63;;
11572;SDS011;5842;52.426;4.886;2023-01-09T08:13:21;15.30;;;8.53;;
11572;SDS011;5842;52.426;4.886;2023-01-09T08:15:49;20.83;;;11.07;;
11572;SDS011;5842;52.426;4.886;2023-01-09T08:18:16;16.80;;;9.43;;
11572;SDS011;5842;52.426;4.886;2023-01-09T08:20:46;18.67;;;10.50;;
11572;SDS011;5842;52.426;4.886;2023-01-09T08:23:13;17.60;;;10.27;;
11572;SDS011;5842;52.426;4.886;2023-01-09T08:25:41;17.57;;;10.13;;
11572;SDS011;5842;52.426;4.886;2023-01-09T08:28:08;18.43;;;11.83;;
11572;SDS011;5842;52.426;4.886;2023-01-09T08:30:38;16.77;;;10.00;;
11572;SDS011;5842;52.426;4.886;2023-01-09T08:33:05;19.33;;;10.67;;
11572;SDS011;5842;52.426;4.886;2023-01-09T08:35:33;15.57;;;9.97;;
11572;SDS011;5842;52.426;4.886;2023-01-09T08:38:01;20.17;;;10.07;;
11572;SDS011;5842;52.426;4.886;2023-01-09T08:40:28;15.70;;;10.80;;
11572;SDS011;5842;52.426;4.886;2023-01-09T08:42:56;21.13;;;11.73;;
11572;SDS011;5842;52.426;4.886;2023-01-09T08:45:42;20.93;;;11.40;;
11572;SDS011;5842;52.426;4.886;2023-01-09T08:48:48;20.73;;;11.57;;
11572;SDS011;5842;52.426;4.886;2023-01-09T08:51:15;20.57;;;12.50;;
11572;SDS011;5842;52.426;4.886;2023-01-09T08:53:42;20.07;;;11.70;;
11572;SDS011;5842;52.426;4.886;2023-01-09T08:56:10;22.33;;;12.70;;
11572;SDS011;5842;52.426;4.886;2023-01-09T08:58:37;18.53;;;11.30;;
11572;SDS011;5842;52.426;4.886;2023-01-09T09:01:07;22.50;;;13.53;;
11572;SDS011;5842;52.426;4.886;2023-01-09T09:03:34;19.77;;;12.27;;
11572;SDS011;5842;52.426;4.886;2023-01-09T09:06:02;22.53;;;13.00;;
11572;SDS011;5842;52.426;4.886;2023-01-09T09:08:30;22.53;;;12.33;;
11572;SDS011;5842;52.426;4.886;2023-01-09T09:10:58;22.20;;;12.40;;
11572;SDS011;5842;52.426;4.886;2023-01-09T09:13:27;17.97;;;10.63;;
11572;SDS011;5842;52.426;4.886;2023-01-09T09:15:54;21.07;;;10.43;;
11572;SDS011;5842;52.426;4.886;2023-01-09T09:18:23;17.47;;;10.50;;
11572;SDS011;5842;52.426;4.886;2023-01-09T09:20:50;17.87;;;10.53;;
11572;SDS011;5842;52.426;4.886;2023-01-09T09:23:18;15.50;;;10.37;;
11572;SDS011;5842;52.426;4.886;2023-01-09T09:25:46;19.30;;;10.73;;
11572;SDS011;5842;52.426;4.886;2023-01-09T09:28:14;17.47;;;10.77;;
11572;SDS011;5842;52.426;4.886;2023-01-09T09:30:41;21.43;;;10.43;;
11572;SDS011;5842;52.426;4.886;2023-01-09T09:33:09;17.43;;;10.40;;
11572;SDS011;5842;52.426;4.886;2023-01-09T09:35:38;18.30;;;10.33;;
11572;SDS011;5842;52.426;4.886;2023-01-09T09:38:08;16.73;;;10.93;;
11572;SDS011;5842;52.426;4.886;2023-01-09T09:40:41;18.87;;;10.63;;
11572;SDS011;5842;52.426;4.886;2023-01-09T09:46:12;14.37;;;8.23;;
11572;SDS011;5842;52.426;4.886;2023-01-09T09:48:42;13.97;;;7.47;;
11572;SDS011;5842;52.426;4.886;2023-01-09T09:51:26;12.07;;;6.90;;
11572;SDS011;5842;52.426;4.886;2023-01-09T09:53:59;15.63;;;6.00;;
11572;SDS011;5842;52.426;4.886;2023-01-09T09:56:29;12.23;;;4.87;;
11572;SDS011;5842;52.426;4.886;2023-01-09T09:58:58;14.57;;;4.50;;
11572;SDS011;5842;52.426;4.886;2023-01-09T10:01:30;12.87;;;3.83;;
11572;SDS011;5842;52.426;4.886;2023-01-09T10:03:59;12.20;;;3.27;;
11572;SDS011;5842;52.426;4.886;2023-01-09T10:06:31;10.10;;;3.80;;
11572;SDS011;5842;52.426;4.886;2023-01-09T10:09:02;11.43;;;3.37;;
11572;SDS011;5842;52.426;4.886;2023-01-09T10:11:38;13.27;;;3.20;;
11572;SDS011;5842;52.426;4.886;2023-01-09T10:14:08;13.80;;;3.47;;
11572;SDS011;5842;52.426;4.886;2023-01-09T10:16:40;9.17;;;2.57;;
11572;SDS011;5842;52.426;4.886;2023-01-09T10:19:11;13.03;;;2.63;;
11572;SDS011;5842;52.426;4.886;2023-01-09T10:21:46;10.90;;;2.33;;
11572;SDS011;5842;52.426;4.886;2023-01-09T10:24:20;9.43;;;2.30;;
11572;SDS011;5842;52.426;4.886;2023-01-09T10:26:53;9.73;;;2.20;;
11572;SDS011;5842;52.426;4.886;2023-01-09T10:29:28;9.73;;;2.57;;
11572;SDS011;5842;52.426;4.886;2023-01-09T10:32:01;8.17;;;2.63;;
11572;SDS011;5842;52.426;4.886;2023-01-09T10:34:35;8.80;;;2.80;;
11572;SDS011;5842;52.426;4.886;2023-01-09T10:37:09;5.57;;;2.43;;
11572;SDS011;5842;52.426;4.886;2023-01-09T10:39:38;11.20;;;3.50;;
11572;SDS011;5842;52.426;4.886;2023-01-09T10:42:10;10.77;;;2.63;;
11572;SDS011;5842;52.426;4.886;2023-01-09T10:44:38;10.67;;;2.60;;
11572;SDS011;5842;52.426;4.886;2023-01-09T10:47:10;7.43;;;2.53;;
11572;SDS011;5842;52.426;4.886;2023-01-09T10:49:39;10.47;;;2.83;;
11572;SDS011;5842;52.426;4.886;2023-01-09T10:52:12;12.93;;;2.83;;
11572;SDS011;5842;52.426;4.886;2023-01-09T10:54:42;12.93;;;3.07;;
11572;SDS011;5842;52.426;4.886;2023-01-09T10:57:13;12.43;;;2.50;;
11572;SDS011;5842;52.426;4.886;2023-01-09T10:59:40;11.97;;;2.70;;
11572;SDS011;5842;52.426;4.886;2023-01-09T11:02:25;10.43;;;2.37;;
11572;SDS011;5842;52.426;4.886;2023-01-09T11:04:53;12.30;;;2.67;;
11572;SDS011;5842;52.426;4.886;2023-01-09T11:07:23;14.20;;;2.53;;
11572;SDS011;5842;52.426;4.886;2023-01-09T11:09:53;13.67;;;2.90;;
11572;SDS011;5842;52.426;4.886;2023-01-09T11:12:22;13.97;;;2.73;;
11572;SDS011;5842;52.426;4.886;2023-01-09T11:14:50;8.83;;;2.60;;
11572;SDS011;5842;52.426;4.886;2023-01-09T11:17:18;8.50;;;2.77;;
11572;SDS011;5842;52.426;4.886;2023-01-09T11:19:59;9.87;;;2.97;;
11572;SDS011;5842;52.426;4.886;2023-01-09T11:22:28;10.20;;;2.80;;
11572;SDS011;5842;52.426;4.886;2023-01-09T11:25:10;11.23;;;3.50;;
11572;SDS011;5842;52.426;4.886;2023-01-09T11:27:37;11.67;;;3.10;;
11572;SDS011;5842;52.426;4.886;2023-01-09T11:30:16;13.43;;;3.47;;
11572;SDS011;5842;52.426;4.886;2023-01-09T11:32:46;10.27;;;3.43;;
11572;SDS011;5842;52.426;4.886;2023-01-09T11:35:15;13.00;;;3.73;;
11572;SDS011;5842;52.426;4.886;2023-01-09T11:37:45;8.07;;;3.43;;
11572;SDS011;5842;52.426;4.886;2023-01-09T11:40:17;15.00;;;4.10;;
11572;SDS011;5842;52.426;4.886;2023-01-09T11:42:59;13.67;;;3.93;;
11572;SDS011;5842;52.426;4.886;2023-01-09T11:45:28;11.73;;;3.30;;
11572;SDS011;5842;52.426;4.886;2023-01-09T11:47:56;13.80;;;3.67;;
11572;SDS011;5842;52.426;4.886;2023-01-09T11:50:24;15.93;;;4.10;;
11572;SDS011;5842;52.426;4.886;2023-01-09T11:53:06;9.50;;;3.47;;
11572;SDS011;5842;52.426;4.886;2023-01-09T11:55:37;13.10;;;3.70;;
11572;SDS011;5842;52.426;4.886;2023-01-09T11:58:07;14.63;;;3.63;;
11572;SDS011;5842;52.426;4.886;2023-01-09T12:00:37;10.43;;;3.70;;
11572;SDS011;5842;52.426;4.886;2023-01-09T12:03:08;11.13;;;3.17;;
11572;SDS011;5842;52.426;4.886;2023-01-09T12:05:43;9.47;;;3.37;;
11572;SDS011;5842;52.426;4.886;2023-01-09T12:08:19;8.87;;;3.00;;
11572;SDS011;5842;52.426;4.886;2023-01-09T12:13:41;11.13;;;3.43;;
11572;SDS011;5842;52.426;4.886;2023-01-09T12:16:14;9.43;;;2.73;;
11572;SDS011;5842;52.426;4.886;2023-01-09T12:18:50;12.03;;;3.60;;
11572;SDS011;5842;52.426;4.886;2023-01-09T12:21:24;10.53;;;3.23;;
11572;SDS011;5842;52.426;4.886;2023-01-09T12:24:07;11.70;;;3.50;;
11572;SDS011;5842;52.426;4.886;2023-01-09T12:26:41;12.43;;;3.57;;
11572;SDS011;5842;52.426;4.886;2023-01-09T12:29:22;15.57;;;3.30;;
11572;SDS011;5842;52.426;4.886;2023-01-09T12:32:02;9.50;;;3.20;;
11572;SDS011;5842;52.426;4.886;2023-01-09T12:34:41;12.10;;;3.60;;
11572;SDS011;5842;52.426;4.886;2023-01-09T12:37:16;14.67;;;3.47;;
11572;SDS011;5842;52.426;4.886;2023-01-09T12:39:50;13.63;;;3.40;;
11572;SDS011;5842;52.426;4.886;2023-01-09T12:42:26;10.10;;;3.20;;
11572;SDS011;5842;52.426;4.886;2023-01-09T12:44:58;13.03;;;2.97;;
11572;SDS011;5842;52.426;4.886;2023-01-09T12:50:22;13.57;;;3.13;;
11572;SDS011;5842;52.426;4.886;2023-01-09T12:53:00;13.07;;;3.13;;
11572;SDS011;5842;52.426;4.886;2023-01-09T12:55:31;9.27;;;3.03;;
11572;SDS011;5842;52.426;4.886;2023-01-09T12:58:00;10.07;;;3.23;;
11572;SDS011;5842;52.426;4.886;2023-01-09T13:00:30;16.00;;;3.50;;
11572;SDS011;5842;52.426;4.886;2023-01-09T13:03:01;8.53;;;3.07;;
11572;SDS011;5842;52.426;4.886;2023-01-09T13:05:32;12.70;;;3.40;;
11572;SDS011;5842;52.426;4.886;2023-01-09T13:08:01;10.53;;;3.00;;
11572;SDS011;5842;52.426;4.886;2023-01-09T13:10:31;10.87;;;3.00;;
11572;SDS011;5842;52.426;4.886;2023-01-09T13:13:04;10.37;;;3.10;;
11572;SDS011;5842;52.426;4.886;2023-01-09T13:15:34;12.07;;;3.67;;
11572;SDS011;5842;52.426;4.886;2023-01-09T13:18:04;13.50;;;2.90;;
11572;SDS011;5842;52.426;4.886;2023-01-09T13:20:35;8.37;;;3.47;;
11572;SDS011;5842;52.426;4.886;2023-01-09T13:23:04;12.13;;;2.80;;
11572;SDS011;5842;52.426;4.886;2023-01-09T13:25:38;15.43;;;3.30;;
11572;SDS011;5842;52.426;4.886;2023-01-09T13:28:11;12.83;;;2.90;;
11572;SDS011;5842;52.426;4.886;2023-01-09T13:30:50;9.80;;;2.73;;
11572;SDS011;5842;52.426;4.886;2023-01-09T13:33:22;12.00;;;2.70;;
11572;SDS011;5842;52.426;4.886;2023-01-09T13:35:51;13.23;;;3.17;;
11572;SDS011;5842;52.426;4.886;2023-01-09T13:38:20;11.10;;;2.70;;
11572;SDS011;5842;52.426;4.886;2023-01-09T13:41:00;14.63;;;2.77;;
11572;SDS011;5842;52.426;4.886;2023-01-09T13:43:52;8.60;;;2.30;;
11572;SDS011;5842;52.426;4.886;2023-01-09T13:46:18;11.07;;;2.60;;
11572;SDS011;5842;52.426;4.886;2023-01-09T13:48:48;13.77;;;3.10;;
11572;SDS011;5842;52.426;4.886;2023-01-09T13:51:35;9.53;;;2.57;;
11572;SDS011;5842;52.426;4.886;2023-01-09T13:54:02;11.13;;;2.73;;
11572;SDS011;5842;52.426;4.886;2023-01-09T13:56:31;10.30;;;2.30;;
11572;SDS011;5842;52.426;4.886;2023-01-09T13:58:59;14.17;;;2.90;;
11572;SDS011;5842;52.426;4.886;2023-01-09T14:01:43;12.27;;;2.90;;
11572;SDS011;5842;52.426;4.886;2023-01-09T14:04:25;11.17;;;2.90;;
11572;SDS011;5842;52.426;4.886;2023-01-09T14:09:35;7.93;;;2.43;;
11572;SDS011;5842;52.426;4.886;2023-01-09T14:12:05;10.40;;;2.77;;
11572;SDS011;5842;52.426;4.886;2023-01-09T14:14:32;10.00;;;2.50;;
11572;SDS011;5842;52.426;4.886;2023-01-09T14:17:01;14.77;;;3.00;;
11572;SDS011;5842;52.426;4.886;2023-01-09T14:19:40;13.33;;;3.00;;
11572;SDS011;5842;52.426;4.886;2023-01-09T14:22:19;13.57;;;3.03;;
11572;SDS011;5842;52.426;4.886;2023-01-09T14:24:49;11.27;;;2.73;;
11572;SDS011;5842;52.426;4.886;2023-01-09T14:30:22;8.70;;;2.70;;
11572;SDS011;5842;52.426;4.886;2023-01-09T14:32:56;13.37;;;3.00;;
11572;SDS011;5842;52.426;4.886;2023-01-09T14:35:28;14.40;;;2.80;;
11572;SDS011;5842;52.426;4.886;2023-01-09T14:38:00;13.07;;;3.20;;
11572;SDS011;5842;52.426;4.886;2023-01-09T14:40:29;12.43;;;2.93;;
11572;SDS011;5842;52.426;4.886;2023-01-09T14:42:58;9.80;;;2.40;;
11572;SDS011;5842;52.426;4.886;2023-01-09T14:45:29;11.27;;;2.80;;
11572;SDS011;5842;52.426;4.886;2023-01-09T14:47:57;11.53;;;2.80;;
11572;SDS011;5842;52.426;4.886;2023-01-09T14:50:28;11.60;;;2.50;;
11572;SDS011;5842;52.426;4.886;2023-01-09T14:52:59;8.37;;;2.50;;
11572;SDS011;5842;52.426;4.886;2023-01-09T14:55:30;8.30;;;2.37;;
11572;SDS011;5842;52.426;4.886;2023-01-09T14:58:08;10.53;;;2.50;;
11572;SDS011;5842;52.426;4.886;2023-01-09T15:00:37;14.47;;;2.87;;
11572;SDS011;5842;52.426;4.886;2023-01-09T15:03:12;13.10;;;2.53;;
11572;SDS011;5842;52.426;4.886;2023-01-09T15:05:39;13.00;;;2.70;;
11572;SDS011;5842;52.426;4.886;2023-01-09T15:08:11;13.47;;;2.77;;
11572;SDS011;5842;52.426;4.886;2023-01-09T15:10:41;12.07;;;2.60;;
11572;SDS011;5842;52.426;4.886;2023-01-09T15:13:12;13.63;;;3.00;;
11572;SDS011;5842;52.426;4.886;2023-01-09T15:15:44;15.07;;;3.10;;
11572;SDS011;5842;52.426;4.886;2023-01-09T15:18:17;9.77;;;3.20;;
11572;SDS011;5842;52.426;4.886;2023-01-09T15:20:44;10.73;;;2.63;;
11572;SDS011;5842;52.426;4.886;2023-01-09T15:23:19;10.93;;;2.80;;
11572;SDS011;5842;52.426;4.886;2023-01-09T15:25:47;13.90;;;3.10;;
11572;SDS011;5842;52.426;4.886;2023-01-09T15:28:22;9.03;;;2.50;;
11572;SDS011;5842;52.426;4.886;2023-01-09T15:30:53;12.17;;;2.60;;
11572;SDS011;5842;52.426;4.886;2023-01-09T15:33:22;10.13;;;2.80;;
11572;SDS011;5842;52.426;4.886;2023-01-09T15:35:49;11.73;;;2.63;;
11572;SDS011;5842;52.426;4.886;2023-01-09T15:38:24;5.47;;;2.30;;
11572;SDS011;5842;52.426;4.886;2023-01-09T15:40:54;12.37;;;2.93;;